Time;durP1;ratioP1;P1;durP2;ratioP2;P2;SDS_P1;SDS_P2;PMS_P1;PMS_P2;Temp;Humidity;BMP_temperature;BMP_pressure;BME280_temperature;BME280_humidity;BME280_pressure;Samples;Min_cycle;Max_cycle;Signal;HPM_P1;HPM_P2
2023/06/07 00:00:51;;;;;;;6.37;4.40;;;;;;;;;;5102847;28;20650;-81
2023/06/07 00:03:19;;;;;;;4.80;3.60;;;;;;;;;;5113259;28;20206;-81
2023/06/07 00:05:47;;;;;;;6.53;3.83;;;;;;;;;;5097895;28;20205;-81
2023/06/07 00:08:14;;;;;;;5.47;3.73;;;;;;;;;;5109795;28;20629;-81
2023/06/07 00:10:41;;;;;;;6.27;3.80;;;;;;;;;;5102304;28;20254;-81
2023/06/07 00:13:08;;;;;;;4.73;3.93;;;;;;;;;;5096654;28;20199;-81
2023/06/07 00:15:34;;;;;;;4.40;4.00;;;;;;;;;;5101267;28;20208;-81
2023/06/07 00:18:01;;;;;;;9.67;3.73;;;;;;;;;;5109921;28;20203;-81
2023/06/07 00:20:28;;;;;;;6.37;3.60;;;;;;;;;;5112491;28;20227;-81
2023/06/07 00:22:56;;;;;;;9.00;4.23;;;;;;;;;;5094583;28;20211;-82
2023/06/07 00:25:23;;;;;;;4.77;4.00;;;;;;;;;;5103921;28;20205;-81
2023/06/07 00:27:50;;;;;;;4.17;3.73;;;;;;;;;;5111755;28;20739;-81
2023/06/07 00:30:17;;;;;;;4.37;3.97;;;;;;;;;;5111998;28;20196;-81
2023/06/07 00:32:44;;;;;;;6.43;4.13;;;;;;;;;;5092839;28;20196;-81
2023/06/07 00:35:12;;;;;;;4.40;4.00;;;;;;;;;;5104117;28;20214;-82
2023/06/07 00:37:38;;;;;;;4.07;3.77;;;;;;;;;;5112025;28;20256;-81
2023/06/07 00:40:08;;;;;;;3.90;3.50;;;;;;;;;;5099612;28;20303;-81
2023/06/07 00:42:35;;;;;;;4.63;4.23;;;;;;;;;;5111729;28;20204;-81
2023/06/07 00:45:01;;;;;;;3.90;3.50;;;;;;;;;;5099316;28;20261;-81
2023/06/07 00:47:28;;;;;;;9.50;3.83;;;;;;;;;;5098626;28;20705;-81
2023/06/07 00:49:55;;;;;;;4.30;3.77;;;;;;;;;;5112016;28;20261;-81
2023/06/07 00:52:22;;;;;;;4.23;3.83;;;;;;;;;;5104686;28;20200;-81
2023/06/07 00:54:49;;;;;;;5.60;3.50;;;;;;;;;;5092141;28;20261;-81
2023/06/07 00:57:17;;;;;;;7.70;3.73;;;;;;;;;;5104285;28;20201;-82
2023/06/07 00:59:45;;;;;;;6.53;3.37;;;;;;;;;;5092278;28;20245;-80
2023/06/07 01:02:14;;;;;;;5.87;3.67;;;;;;;;;;5111785;28;20635;-81
2023/06/07 01:04:42;;;;;;;4.43;4.03;;;;;;;;;;5098126;28;20254;-81
2023/06/07 01:07:09;;;;;;;3.40;3.10;;;;;;;;;;5111899;28;20276;-81
2023/06/07 01:09:36;;;;;;;5.03;3.53;;;;;;;;;;5112144;28;20197;-81
2023/06/07 01:12:03;;;;;;;4.13;3.73;;;;;;;;;;5102398;28;20208;-81
2023/06/07 01:14:32;;;;;;;3.83;3.50;;;;;;;;;;5105105;28;20204;-80
2023/06/07 01:17:02;;;;;;;5.20;3.70;;;;;;;;;;5100205;28;20743;-80
2023/06/07 01:19:30;;;;;;;5.07;3.80;;;;;;;;;;5095152;28;20291;-80
2023/06/07 01:21:59;;;;;;;4.40;3.67;;;;;;;;;;5100767;28;20578;-81
2023/06/07 01:24:29;;;;;;;3.90;3.37;;;;;;;;;;5097715;28;20196;-81
2023/06/07 01:26:57;;;;;;;4.23;3.40;;;;;;;;;;5111157;28;20632;-80
2023/06/07 01:29:25;;;;;;;5.77;3.73;;;;;;;;;;5111406;28;20203;-80
2023/06/07 01:31:52;;;;;;;3.60;3.30;;;;;;;;;;5100318;28;20308;-80
2023/06/07 01:34:21;;;;;;;5.97;3.53;;;;;;;;;;5104911;28;20197;-80
2023/06/07 01:36:49;;;;;;;4.63;4.03;;;;;;;;;;5091272;28;20200;-80
2023/06/07 01:39:16;;;;;;;4.77;3.67;;;;;;;;;;5091232;28;20583;-80
2023/06/07 01:41:45;;;;;;;4.17;3.73;;;;;;;;;;5090406;28;20224;-80
2023/06/07 01:44:12;;;;;;;6.43;4.20;;;;;;;;;;5096943;28;20200;-80
2023/06/07 01:46:39;;;;;;;5.63;3.93;;;;;;;;;;5111313;28;20227;-80
2023/06/07 01:49:07;;;;;;;7.33;4.63;;;;;;;;;;5111141;28;20209;-80
2023/06/07 01:51:33;;;;;;;5.67;4.47;;;;;;;;;;5110798;28;20203;-80
2023/06/07 01:54:01;;;;;;;4.83;4.30;;;;;;;;;;5111079;28;20192;-81
2023/06/07 01:56:33;;;;;;;7.73;5.17;;;;;;;;;;5111100;28;20685;-80
2023/06/07 01:59:05;;;;;;;5.33;4.20;;;;;;;;;;5103642;28;20205;-80
2023/06/07 02:01:37;;;;;;;4.60;4.10;;;;;;;;;;5103858;28;20772;-80
2023/06/07 02:04:06;;;;;;;4.07;3.67;;;;;;;;;;5090749;28;20660;-80
2023/06/07 02:06:36;;;;;;;5.67;4.40;;;;;;;;;;5104161;28;20250;-80
2023/06/07 02:09:07;;;;;;;3.97;3.47;;;;;;;;;;5100987;28;20196;-80
2023/06/07 02:11:35;;;;;;;4.63;4.07;;;;;;;;;;5110717;28;20203;-80
2023/06/07 02:14:03;;;;;;;3.37;3.07;;;;;;;;;;5083201;28;20689;-80
2023/06/07 02:16:32;;;;;;;6.97;3.70;;;;;;;;;;5095846;28;20212;-80
2023/06/07 02:18:59;;;;;;;4.00;3.53;;;;;;;;;;5111283;28;20578;-80
2023/06/07 02:21:26;;;;;;;4.20;3.80;;;;;;;;;;5110919;28;20219;-80
2023/06/07 02:23:52;;;;;;;4.10;3.80;;;;;;;;;;5110821;28;20204;-80
2023/06/07 02:26:20;;;;;;;6.50;3.43;;;;;;;;;;5110600;28;20690;-80
2023/06/07 02:28:47;;;;;;;7.47;3.80;;;;;;;;;;5094807;28;20573;-81
2023/06/07 02:31:16;;;;;;;7.57;3.43;;;;;;;;;;5097783;28;20222;-80
2023/06/07 02:33:43;;;;;;;4.77;3.47;;;;;;;;;;5096631;28;20197;-80
2023/06/07 02:36:12;;;;;;;7.97;4.23;;;;;;;;;;5090426;28;20211;-80
2023/06/07 02:38:39;;;;;;;4.93;4.40;;;;;;;;;;5105390;28;20226;-80
2023/06/07 02:41:06;;;;;;;5.67;4.07;;;;;;;;;;5102177;28;20228;-81
2023/06/07 02:43:32;;;;;;;5.93;4.07;;;;;;;;;;5105314;28;20743;-81
2023/06/07 02:45:59;;;;;;;7.60;4.23;;;;;;;;;;5101786;28;20278;-81
2023/06/07 02:48:27;;;;;;;7.53;5.50;;;;;;;;;;5103732;28;20633;-81
2023/06/07 02:50:54;;;;;;;6.87;4.50;;;;;;;;;;5090435;28;20200;-81
2023/06/07 02:53:22;;;;;;;6.00;4.83;;;;;;;;;;5103686;28;20235;-81
2023/06/07 02:55:48;;;;;;;6.90;5.10;;;;;;;;;;5103722;28;20207;-81
2023/06/07 02:58:15;;;;;;;9.60;6.47;;;;;;;;;;5111331;28;20201;-81
2023/06/07 03:00:44;;;;;;;7.07;4.97;;;;;;;;;;5103771;28;20250;-81
2023/06/07 03:03:11;;;;;;;8.67;7.77;;;;;;;;;;5100549;28;20202;-82
2023/06/07 03:05:40;;;;;;;9.97;7.80;;;;;;;;;;5103773;28;20262;-81
2023/06/07 03:08:10;;;;;;;16.93;7.73;;;;;;;;;;5108562;28;20775;-83
2023/06/07 03:10:36;;;;;;;9.17;7.60;;;;;;;;;;5113568;28;20200;-82
2023/06/07 03:13:04;;;;;;;12.03;7.50;;;;;;;;;;5113330;28;20215;-82
2023/06/07 03:15:32;;;;;;;9.73;7.07;;;;;;;;;;5103083;28;20627;-83
2023/06/07 03:17:59;;;;;;;13.80;6.63;;;;;;;;;;5096922;28;20203;-83
2023/06/07 03:20:28;;;;;;;12.17;8.30;;;;;;;;;;5113159;28;20693;-83
2023/06/07 03:22:56;;;;;;;10.97;7.53;;;;;;;;;;5108901;28;20286;-84
2023/06/07 03:25:23;;;;;;;8.23;6.43;;;;;;;;;;5093806;28;20292;-84
2023/06/07 03:27:49;;;;;;;14.37;6.93;;;;;;;;;;5106657;28;20196;-85
2023/06/07 03:30:16;;;;;;;8.90;7.17;;;;;;;;;;5105721;28;20207;-84
2023/06/07 03:32:44;;;;;;;10.73;7.90;;;;;;;;;;5095265;28;20249;-85
2023/06/07 03:35:11;;;;;;;18.03;16.20;;;;;;;;;;5105611;28;20199;-85
2023/06/07 03:37:37;;;;;;;15.63;12.60;;;;;;;;;;5099657;28;20196;-85
2023/06/07 03:40:10;;;;;;;14.40;12.87;;;;;;;;;;5100910;28;20212;-85
2023/06/07 03:42:37;;;;;;;10.37;9.07;;;;;;;;;;5099421;28;20249;-85
2023/06/07 03:45:05;;;;;;;9.53;8.33;;;;;;;;;;5081339;28;20639;-85
2023/06/07 03:47:31;;;;;;;5.70;5.20;;;;;;;;;;5100245;28;20730;-85
2023/06/07 03:49:58;;;;;;;6.93;6.23;;;;;;;;;;5101200;28;20265;-86
2023/06/07 03:52:25;;;;;;;9.23;6.63;;;;;;;;;;5112896;28;20267;-86
2023/06/07 03:54:52;;;;;;;8.97;7.80;;;;;;;;;;5112685;28;20290;-86
2023/06/07 03:57:20;;;;;;;10.33;7.83;;;;;;;;;;5081739;28;20621;-85
2023/06/07 03:59:47;;;;;;;9.53;7.73;;;;;;;;;;5113408;28;20638;-86
2023/06/07 04:02:14;;;;;;;11.13;9.10;;;;;;;;;;5113357;28;20639;-86
2023/06/07 04:04:41;;;;;;;6.30;5.70;;;;;;;;;;5098732;28;20694;-86
2023/06/07 04:07:08;;;;;;;5.93;5.17;;;;;;;;;;5074708;28;20269;-86
2023/06/07 04:09:35;;;;;;;6.90;5.60;;;;;;;;;;5106233;28;20231;-86
2023/06/07 04:12:02;;;;;;;5.83;5.30;;;;;;;;;;5102531;28;20575;-87
2023/06/07 04:14:31;;;;;;;7.37;5.57;;;;;;;;;;5110628;28;20195;-86
2023/06/07 04:16:58;;;;;;;5.43;4.93;;;;;;;;;;5111692;28;20203;-85
2023/06/07 04:19:25;;;;;;;5.83;5.20;;;;;;;;;;5091024;28;20682;-85
2023/06/07 04:21:52;;;;;;;8.27;5.83;;;;;;;;;;5076796;28;20261;-85
2023/06/07 04:24:19;;;;;;;6.80;5.60;;;;;;;;;;5111392;28;20661;-86
2023/06/07 04:26:48;;;;;;;5.70;5.20;;;;;;;;;;5093844;28;20204;-85
2023/06/07 04:29:15;;;;;;;6.27;4.37;;;;;;;;;;5111727;28;20229;-83
2023/06/07 04:31:43;;;;;;;5.00;4.50;;;;;;;;;;5112331;28;20682;-83
2023/06/07 04:34:10;;;;;;;5.57;5.07;;;;;;;;;;5098431;28;20282;-83
2023/06/07 04:36:38;;;;;;;4.87;4.37;;;;;;;;;;5096760;28;20199;-85
2023/06/07 04:39:09;;;;;;;5.53;5.03;;;;;;;;;;5100245;28;20207;-86
2023/06/07 04:41:36;;;;;;;5.63;4.30;;;;;;;;;;5098291;28;20228;-86
2023/06/07 04:44:04;;;;;;;5.87;4.50;;;;;;;;;;5112233;28;20597;-85
2023/06/07 04:46:31;;;;;;;3.87;3.50;;;;;;;;;;5111634;28;20223;-85
2023/06/07 04:49:00;;;;;;;3.87;3.47;;;;;;;;;;5102279;28;20192;-85
2023/06/07 04:51:29;;;;;;;3.17;2.87;;;;;;;;;;5108328;28;20291;-85
2023/06/07 04:53:58;;;;;;;4.07;3.10;;;;;;;;;;5101802;28;20196;-85
2023/06/07 04:56:26;;;;;;;4.17;3.40;;;;;;;;;;5095124;28;20288;-85
2023/06/07 04:58:53;;;;;;;3.63;3.00;;;;;;;;;;5111844;28;20298;-84
2023/06/07 05:01:22;;;;;;;5.70;3.23;;;;;;;;;;5109756;28;20778;-84
2023/06/07 05:03:49;;;;;;;4.10;3.20;;;;;;;;;;5111523;28;20203;-84
2023/06/07 05:06:18;;;;;;;4.80;3.23;;;;;;;;;;5111558;28;20208;-84
2023/06/07 05:08:46;;;;;;;3.60;3.30;;;;;;;;;;5111650;28;20205;-85
2023/06/07 05:11:12;;;;;;;4.47;3.30;;;;;;;;;;5111967;28;20647;-84
2023/06/07 05:13:39;;;;;;;3.37;3.07;;;;;;;;;;5097454;28;20211;-83
2023/06/07 05:16:11;;;;;;;8.30;3.30;;;;;;;;;;5096922;28;20204;-83
2023/06/07 05:18:39;;;;;;;3.43;3.13;;;;;;;;;;5099487;28;20208;-84
2023/06/07 05:21:05;;;;;;;6.03;3.30;;;;;;;;;;5110903;28;20781;-83
2023/06/07 05:23:34;;;;;;;5.53;4.17;;;;;;;;;;5111525;28;20204;-83
2023/06/07 05:26:00;;;;;;;5.30;3.60;;;;;;;;;;5097615;28;20250;-84
2023/06/07 05:28:28;;;;;;;5.17;3.57;;;;;;;;;;5111695;28;20224;-83
2023/06/07 05:30:56;;;;;;;7.20;3.37;;;;;;;;;;5107712;28;20220;-83
2023/06/07 05:33:23;;;;;;;4.00;3.23;;;;;;;;;;5102284;28;20229;-83
2023/06/07 05:35:49;;;;;;;7.43;4.87;;;;;;;;;;5097823;28;20202;-84
2023/06/07 05:38:16;;;;;;;4.43;3.10;;;;;;;;;;5100061;28;20211;-83
2023/06/07 05:40:44;;;;;;;5.37;3.43;;;;;;;;;;5095695;28;20218;-82
2023/06/07 05:43:11;;;;;;;3.33;3.03;;;;;;;;;;5109462;28;20274;-82
2023/06/07 05:45:40;;;;;;;4.23;3.13;;;;;;;;;;5108501;28;21025;-83
2023/06/07 05:48:07;;;;;;;5.97;3.07;;;;;;;;;;5100275;28;20246;-83
2023/06/07 05:50:33;;;;;;;3.90;3.50;;;;;;;;;;5097787;28;20210;-82
2023/06/07 05:53:00;;;;;;;4.40;2.83;;;;;;;;;;5111169;28;20261;-83
2023/06/07 05:55:28;;;;;;;3.33;3.03;;;;;;;;;;5094382;28;20201;-82
2023/06/07 05:57:57;;;;;;;3.60;3.30;;;;;;;;;;5090817;28;20585;-82
2023/06/07 06:00:24;;;;;;;2.80;2.60;;;;;;;;;;5103992;28;20287;-83
2023/06/07 06:02:52;;;;;;;7.57;2.87;;;;;;;;;;5101583;28;20231;-82
2023/06/07 06:05:20;;;;;;;6.23;2.63;;;;;;;;;;5106816;28;20203;-83
2023/06/07 06:07:47;;;;;;;4.80;3.13;;;;;;;;;;5099690;28;20744;-83
2023/06/07 06:10:14;;;;;;;5.10;2.60;;;;;;;;;;5110590;28;20217;-84
2023/06/07 06:12:40;;;;;;;3.67;2.80;;;;;;;;;;5098070;28;20659;-83
2023/06/07 06:15:09;;;;;;;4.70;2.93;;;;;;;;;;5096788;28;20253;-82
2023/06/07 06:17:36;;;;;;;5.83;2.77;;;;;;;;;;5090839;28;20199;-82
2023/06/07 06:20:04;;;;;;;3.57;2.67;;;;;;;;;;5103509;28;20273;-83
2023/06/07 06:22:31;;;;;;;3.27;2.37;;;;;;;;;;5105293;28;20227;-83
2023/06/07 06:24:57;;;;;;;2.30;2.10;;;;;;;;;;5110164;28;20219;-82
2023/06/07 06:27:24;;;;;;;2.40;2.20;;;;;;;;;;5110652;28;20203;-82
2023/06/07 06:29:51;;;;;;;5.23;3.00;;;;;;;;;;5112997;28;20620;-82
2023/06/07 06:32:19;;;;;;;4.87;2.77;;;;;;;;;;5101423;28;20290;-82
2023/06/07 06:34:46;;;;;;;2.50;2.30;;;;;;;;;;5111110;28;20221;-82
2023/06/07 06:37:16;;;;;;;2.70;2.30;;;;;;;;;;5114188;28;20210;-82
2023/06/07 06:39:42;;;;;;;2.93;2.63;;;;;;;;;;5112900;28;20579;-81
2023/06/07 06:42:10;;;;;;;2.93;2.50;;;;;;;;;;5102102;28;20227;-82
2023/06/07 06:44:36;;;;;;;3.70;2.47;;;;;;;;;;5099436;28;20204;-84
2023/06/07 06:47:03;;;;;;;2.50;2.30;;;;;;;;;;5102348;28;20227;-82
2023/06/07 06:49:31;;;;;;;3.17;2.53;;;;;;;;;;5100427;28;20200;-82
2023/06/07 06:51:58;;;;;;;2.80;2.50;;;;;;;;;;5093992;28;20265;-81
2023/06/07 06:54:26;;;;;;;3.20;2.37;;;;;;;;;;5107598;28;20697;-81
2023/06/07 06:56:53;;;;;;;3.63;2.43;;;;;;;;;;5093986;28;20200;-81
2023/06/07 06:59:20;;;;;;;3.17;2.37;;;;;;;;;;5107996;28;20214;-82
2023/06/07 07:01:47;;;;;;;2.73;2.53;;;;;;;;;;5093569;28;20231;-81
2023/06/07 07:04:15;;;;;;;2.73;2.40;;;;;;;;;;5108712;28;20199;-82
2023/06/07 07:06:43;;;;;;;5.57;2.83;;;;;;;;;;5113969;28;20608;-82
2023/06/07 07:09:10;;;;;;;6.27;2.80;;;;;;;;;;5113645;28;20221;-81
2023/06/07 07:11:37;;;;;;;3.07;2.87;;;;;;;;;;5111716;28;20200;-81
2023/06/07 07:14:04;;;;;;;2.63;2.43;;;;;;;;;;5109576;28;20210;-81
2023/06/07 07:16:31;;;;;;;6.17;2.60;;;;;;;;;;5096785;28;20557;-81
2023/06/07 07:18:58;;;;;;;3.63;2.73;;;;;;;;;;5105394;28;20203;-80
2023/06/07 07:21:27;;;;;;;4.13;2.57;;;;;;;;;;5094263;28;20207;-81
2023/06/07 07:23:55;;;;;;;3.97;2.47;;;;;;;;;;5104781;28;20196;-81
2023/06/07 07:26:22;;;;;;;2.90;2.20;;;;;;;;;;5099180;28;20662;-82
2023/06/07 07:28:49;;;;;;;3.20;2.90;;;;;;;;;;5109750;28;20200;-81
2023/06/07 07:31:15;;;;;;;2.47;2.27;;;;;;;;;;5112034;28;20199;-81
2023/06/07 07:33:42;;;;;;;3.73;2.37;;;;;;;;;;5104124;28;20678;-79
2023/06/07 07:36:09;;;;;;;2.70;2.47;;;;;;;;;;5106527;28;20204;-79
2023/06/07 07:38:37;;;;;;;4.03;2.33;;;;;;;;;;5102519;28;20196;-79
2023/06/07 07:41:05;;;;;;;3.40;2.50;;;;;;;;;;5099738;28;20210;-79
2023/06/07 07:43:32;;;;;;;4.03;2.80;;;;;;;;;;5102992;28;20284;-79
2023/06/07 07:45:58;;;;;;;6.23;2.37;;;;;;;;;;5096248;28;20192;-79
2023/06/07 07:48:25;;;;;;;9.13;2.67;;;;;;;;;;5113144;28;20296;-79
2023/06/07 07:50:52;;;;;;;4.00;2.90;;;;;;;;;;5113128;28;20602;-79
2023/06/07 07:53:19;;;;;;;3.40;2.47;;;;;;;;;;5098992;28;20211;-79
2023/06/07 07:55:46;;;;;;;3.43;3.10;;;;;;;;;;5112813;28;20195;-79
2023/06/07 07:58:14;;;;;;;3.27;2.90;;;;;;;;;;5099510;28;20257;-79
2023/06/07 08:00:40;;;;;;;6.50;3.10;;;;;;;;;;5113144;28;20203;-79
2023/06/07 08:03:07;;;;;;;3.37;2.63;;;;;;;;;;5097263;28;20223;-79
2023/06/07 08:05:34;;;;;;;6.67;3.87;;;;;;;;;;5100007;28;20210;-79
2023/06/07 08:08:02;;;;;;;3.30;3.00;;;;;;;;;;5112564;28;20205;-79
2023/06/07 08:10:31;;;;;;;2.80;2.33;;;;;;;;;;5113329;28;20291;-79
2023/06/07 08:12:58;;;;;;;6.57;3.10;;;;;;;;;;5097298;28;20255;-79
2023/06/07 08:15:26;;;;;;;5.13;3.10;;;;;;;;;;5092475;28;20690;-79
2023/06/07 08:17:53;;;;;;;3.67;3.37;;;;;;;;;;5106057;28;20204;-79
2023/06/07 08:20:20;;;;;;;4.93;3.70;;;;;;;;;;5102318;28;20225;-79
2023/06/07 08:22:50;;;;;;;8.37;3.57;;;;;;;;;;5095570;28;20655;-79
2023/06/07 08:25:17;;;;;;;15.73;4.30;;;;;;;;;;5103699;28;20290;-79
2023/06/07 08:27:44;;;;;;;5.20;2.90;;;;;;;;;;5107641;28;20192;-78
2023/06/07 08:30:11;;;;;;;5.57;2.93;;;;;;;;;;5103812;28;20199;-79
2023/06/07 08:32:42;;;;;;;2.93;2.73;;;;;;;;;;5111831;28;20241;-78
2023/06/07 08:35:11;;;;;;;4.73;3.67;;;;;;;;;;5100632;28;20287;-78
2023/06/07 08:37:38;;;;;;;6.33;3.50;;;;;;;;;;5110973;28;20196;-79
2023/06/07 08:40:06;;;;;;;6.30;3.50;;;;;;;;;;5112701;28;20256;-78
2023/06/07 08:42:33;;;;;;;4.20;2.97;;;;;;;;;;5092339;28;20285;-79
2023/06/07 08:45:00;;;;;;;3.40;2.50;;;;;;;;;;5105402;28;20643;-79
2023/06/07 08:47:28;;;;;;;3.17;2.87;;;;;;;;;;5091634;28;20230;-79
2023/06/07 08:49:58;;;;;;;2.90;2.63;;;;;;;;;;5105889;28;20196;-79
2023/06/07 08:52:25;;;;;;;5.40;3.77;;;;;;;;;;5098172;28;20199;-79
2023/06/07 08:54:55;;;;;;;2.90;2.60;;;;;;;;;;5097353;28;20599;-78
2023/06/07 08:57:22;;;;;;;7.30;3.00;;;;;;;;;;5099665;28;20674;-78
2023/06/07 08:59:49;;;;;;;3.30;2.80;;;;;;;;;;5111776;28;20677;-78
2023/06/07 09:02:17;;;;;;;5.40;3.13;;;;;;;;;;5111952;28;20225;-78
2023/06/07 09:04:44;;;;;;;3.30;3.00;;;;;;;;;;5095700;28;20671;-78
2023/06/07 09:07:13;;;;;;;4.63;3.40;;;;;;;;;;5100443;28;20206;-78
2023/06/07 09:09:41;;;;;;;3.00;2.73;;;;;;;;;;5098375;28;20191;-78
2023/06/07 09:12:08;;;;;;;4.77;3.33;;;;;;;;;;5101430;28;20207;-79
2023/06/07 09:14:37;;;;;;;3.30;2.60;;;;;;;;;;5105330;28;20196;-78
2023/06/07 09:17:04;;;;;;;3.47;2.97;;;;;;;;;;5091183;28;20200;-78
2023/06/07 09:19:33;;;;;;;5.80;3.40;;;;;;;;;;5104824;28;20202;-78
2023/06/07 09:22:00;;;;;;;5.13;3.20;;;;;;;;;;5091076;28;20200;-78
2023/06/07 09:24:29;;;;;;;3.13;2.90;;;;;;;;;;5105137;28;20273;-78
2023/06/07 09:26:56;;;;;;;4.73;3.03;;;;;;;;;;5101203;28;20199;-79
2023/06/07 09:29:23;;;;;;;3.67;3.27;;;;;;;;;;5111434;28;20196;-78
2023/06/07 09:31:50;;;;;;;4.97;3.50;;;;;;;;;;5100683;28;20211;-78
2023/06/07 09:34:21;;;;;;;3.40;2.90;;;;;;;;;;5104481;28;20200;-78
2023/06/07 09:36:52;;;;;;;5.83;2.80;;;;;;;;;;5090921;28;20749;-78
2023/06/07 09:39:23;;;;;;;3.57;3.20;;;;;;;;;;5104877;28;20208;-78
2023/06/07 09:41:52;;;;;;;3.47;3.17;;;;;;;;;;5103674;28;20203;-78
2023/06/07 09:44:23;;;;;;;7.20;3.27;;;;;;;;;;5097856;28;20709;-77
2023/06/07 09:46:51;;;;;;;3.63;3.20;;;;;;;;;;5096988;28;20224;-78
2023/06/07 09:49:23;;;;;;;4.07;2.67;;;;;;;;;;5103568;28;20204;-78
2023/06/07 09:51:52;;;;;;;4.63;3.27;;;;;;;;;;5107835;28;20204;-78
2023/06/07 09:54:21;;;;;;;3.53;3.23;;;;;;;;;;5100651;28;20196;-78
2023/06/07 09:56:48;;;;;;;3.60;3.30;;;;;;;;;;5104272;28;20200;-77
2023/06/07 09:59:16;;;;;;;3.63;3.33;;;;;;;;;;5091059;28;20200;-77
2023/06/07 10:01:45;;;;;;;3.47;3.20;;;;;;;;;;5104713;28;20200;-77
2023/06/07 10:04:12;;;;;;;4.30;2.67;;;;;;;;;;5093427;28;20242;-77
2023/06/07 10:06:41;;;;;;;4.20;3.00;;;;;;;;;;5113893;28;20252;-78
2023/06/07 10:09:09;;;;;;;5.27;3.23;;;;;;;;;;5107807;28;20269;-78
2023/06/07 10:11:37;;;;;;;3.27;2.97;;;;;;;;;;5094289;28;20731;-78
2023/06/07 10:14:07;;;;;;;4.37;3.27;;;;;;;;;;5094639;28;20204;-78
2023/06/07 10:16:37;;;;;;;4.20;3.23;;;;;;;;;;5099889;28;20227;-78
2023/06/07 10:19:13;;;;;;;8.03;3.87;;;;;;;;;;5102385;28;20223;-78
2023/06/07 10:21:41;;;;;;;5.93;3.10;;;;;;;;;;5101687;28;20625;-79
2023/06/07 10:24:11;;;;;;;9.33;3.40;;;;;;;;;;5101236;28;20224;-79
2023/06/07 10:26:45;;;;;;;6.67;3.33;;;;;;;;;;5106379;28;20201;-79
2023/06/07 10:29:18;;;;;;;3.27;3.00;;;;;;;;;;5107333;28;20211;-79
2023/06/07 10:31:48;;;;;;;4.63;3.27;;;;;;;;;;5104752;28;20214;-80
2023/06/07 10:34:16;;;;;;;3.13;2.83;;;;;;;;;;5114627;28;20244;-80
2023/06/07 10:36:43;;;;;;;3.23;2.93;;;;;;;;;;5102814;28;20208;-80
2023/06/07 10:39:11;;;;;;;3.87;3.47;;;;;;;;;;5094402;28;20246;-79
2023/06/07 10:41:38;;;;;;;4.53;3.40;;;;;;;;;;5106027;28;20682;-80
2023/06/07 10:44:06;;;;;;;5.50;3.23;;;;;;;;;;5094991;28;20250;-79
2023/06/07 10:46:33;;;;;;;10.77;3.60;;;;;;;;;;5106575;28;20227;-80
2023/06/07 10:49:01;;;;;;;5.40;3.37;;;;;;;;;;5109737;28;20566;-80
2023/06/07 10:52:05;;;;;;;3.93;3.60;;;;;;;;;;5105992;28;20200;-80
2023/06/07 10:54:32;;;;;;;4.37;2.83;;;;;;;;;;5094290;28;20200;-80
2023/06/07 10:57:00;;;;;;;3.80;2.80;;;;;;;;;;5107686;28;20189;-80
2023/06/07 10:59:27;;;;;;;4.07;3.57;;;;;;;;;;5094113;28;20209;-79
2023/06/07 11:01:55;;;;;;;5.60;4.77;;;;;;;;;;5093691;28;20201;-79
2023/06/07 11:04:56;;;;;;;3.87;3.57;;;;;;;;;;5105347;28;20318;-79
2023/06/07 11:07:25;;;;;;;5.43;3.17;;;;;;;;;;5089653;28;20731;-79
2023/06/07 11:10:27;;;;;;;4.83;3.70;;;;;;;;;;5096360;28;21604;-79
2023/06/07 11:12:58;;;;;;;3.73;3.13;;;;;;;;;;5113548;28;20214;-79
2023/06/07 11:15:30;;;;;;;6.17;3.70;;;;;;;;;;5104111;28;20762;-79
2023/06/07 11:17:58;;;;;;;4.33;3.80;;;;;;;;;;5110553;28;20789;-79
2023/06/07 11:20:50;;;;;;;4.67;3.37;;;;;;;;;;5103755;28;20200;-80
2023/06/07 11:23:35;;;;;;;4.10;3.07;;;;;;;;;;5100390;28;20234;-80
2023/06/07 11:26:08;;;;;;;5.37;3.40;;;;;;;;;;5114313;28;20207;-80
2023/06/07 11:28:37;;;;;;;4.80;3.10;;;;;;;;;;5113704;28;20284;-80
2023/06/07 11:31:05;;;;;;;3.17;2.97;;;;;;;;;;5108696;28;20196;-80
2023/06/07 11:33:32;;;;;;;3.23;3.00;;;;;;;;;;5105065;28;20195;-80
2023/06/07 11:36:00;;;;;;;9.87;3.53;;;;;;;;;;5108669;28;20200;-80
2023/06/07 11:38:30;;;;;;;3.33;2.87;;;;;;;;;;5105491;28;20207;-79
2023/06/07 11:40:57;;;;;;;5.77;3.10;;;;;;;;;;5107675;28;20277;-80
2023/06/07 11:43:25;;;;;;;4.30;3.30;;;;;;;;;;5105874;28;20281;-80
2023/06/07 11:45:52;;;;;;;5.53;3.23;;;;;;;;;;5097109;28;20217;-78
2023/06/07 11:48:19;;;;;;;7.73;3.20;;;;;;;;;;5112821;28;20706;-78
2023/06/07 11:50:47;;;;;;;4.03;3.20;;;;;;;;;;5112204;28;20204;-79
2023/06/07 11:53:15;;;;;;;3.23;2.93;;;;;;;;;;5100232;28;20211;-79
2023/06/07 11:55:42;;;;;;;4.63;3.53;;;;;;;;;;5099613;28;20201;-79
2023/06/07 11:58:09;;;;;;;3.10;2.87;;;;;;;;;;5104419;28;20204;-79
2023/06/07 12:00:37;;;;;;;5.00;3.37;;;;;;;;;;5107208;28;20681;-80
2023/06/07 12:03:06;;;;;;;3.30;2.97;;;;;;;;;;5104467;28;20196;-79
2023/06/07 12:05:34;;;;;;;8.63;2.80;;;;;;;;;;5094747;28;20625;-80
2023/06/07 12:08:04;;;;;;;6.73;3.20;;;;;;;;;;5112597;28;20214;-79
2023/06/07 12:10:33;;;;;;;5.63;2.93;;;;;;;;;;5110130;28;20692;-79
2023/06/07 12:13:11;;;;;;;2.80;2.50;;;;;;;;;;5102138;28;20734;-79
2023/06/07 12:15:46;;;;;;;9.83;3.23;;;;;;;;;;5094421;28;20800;-79
2023/06/07 12:18:13;;;;;;;4.20;2.90;;;;;;;;;;5097849;28;20199;-79
2023/06/07 12:20:41;;;;;;;4.23;3.10;;;;;;;;;;5100124;28;20261;-79
2023/06/07 12:23:08;;;;;;;3.37;2.97;;;;;;;;;;5106018;28;20211;-79
2023/06/07 12:25:36;;;;;;;4.87;2.70;;;;;;;;;;5092149;28;20253;-80
2023/06/07 12:28:09;;;;;;;3.83;2.80;;;;;;;;;;5089351;28;20637;-79
2023/06/07 12:30:37;;;;;;;3.63;3.27;;;;;;;;;;5106262;28;20202;-80
2023/06/07 12:33:04;;;;;;;4.97;2.83;;;;;;;;;;5104383;28;20200;-80
2023/06/07 12:35:38;;;;;;;3.50;2.40;;;;;;;;;;5093707;28;20200;-79
2023/06/07 12:38:05;;;;;;;4.20;2.40;;;;;;;;;;5112612;28;20311;-80
2023/06/07 12:40:32;;;;;;;2.23;2.07;;;;;;;;;;5109646;28;20588;-80
2023/06/07 12:43:00;;;;;;;2.97;2.67;;;;;;;;;;5101172;28;20192;-79
2023/06/07 12:45:28;;;;;;;3.00;2.63;;;;;;;;;;5095628;28;20703;-79
2023/06/07 12:47:55;;;;;;;6.23;2.37;;;;;;;;;;5102293;28;20232;-79
2023/06/07 12:50:22;;;;;;;4.80;2.63;;;;;;;;;;5098519;28;20585;-79
2023/06/07 12:52:49;;;;;;;4.23;2.60;;;;;;;;;;5101589;28;20200;-79
2023/06/07 12:55:17;;;;;;;3.00;2.50;;;;;;;;;;5105099;28;20196;-79
2023/06/07 12:57:44;;;;;;;4.70;2.73;;;;;;;;;;5091698;28;20724;-79
2023/06/07 13:00:13;;;;;;;3.27;2.47;;;;;;;;;;5105392;28;20205;-79
2023/06/07 13:02:43;;;;;;;2.43;2.20;;;;;;;;;;5103521;28;20282;-79
2023/06/07 13:05:11;;;;;;;2.87;2.57;;;;;;;;;;5111419;28;20258;-79
2023/06/07 13:07:38;;;;;;;5.20;2.73;;;;;;;;;;5111969;28;20248;-79
2023/06/07 13:10:05;;;;;;;4.07;2.73;;;;;;;;;;5111762;28;20697;-79
2023/06/07 13:12:32;;;;;;;2.30;2.07;;;;;;;;;;5111660;28;20279;-79
2023/06/07 13:14:59;;;;;;;7.57;2.97;;;;;;;;;;5105743;28;20196;-79
2023/06/07 13:17:27;;;;;;;4.43;2.87;;;;;;;;;;5091309;28;20204;-79
2023/06/07 13:19:54;;;;;;;4.10;2.43;;;;;;;;;;5091788;28;20609;-79
2023/06/07 13:22:21;;;;;;;13.23;2.53;;;;;;;;;;5091042;28;20200;-80
2023/06/07 13:24:48;;;;;;;3.60;2.80;;;;;;;;;;5104280;28;20228;-79
2023/06/07 13:27:14;;;;;;;3.67;2.83;;;;;;;;;;5104872;28;20199;-79
2023/06/07 13:29:42;;;;;;;2.40;2.20;;;;;;;;;;5098677;28;20195;-79
2023/06/07 13:32:09;;;;;;;5.53;3.13;;;;;;;;;;5110785;28;20199;-80
2023/06/07 13:34:37;;;;;;;2.80;2.50;;;;;;;;;;5091367;28;20232;-79
2023/06/07 13:37:04;;;;;;;3.90;2.17;;;;;;;;;;5093008;28;20666;-79
2023/06/07 13:39:31;;;;;;;4.23;3.80;;;;;;;;;;5111466;28;20609;-80
2023/06/07 13:41:57;;;;;;;3.83;2.37;;;;;;;;;;5110705;28;20208;-80
2023/06/07 13:44:24;;;;;;;6.80;3.10;;;;;;;;;;5102720;28;20292;-79
2023/06/07 13:46:51;;;;;;;3.03;2.77;;;;;;;;;;5093135;28;20699;-79
2023/06/07 13:49:19;;;;;;;5.47;2.50;;;;;;;;;;5102183;28;20203;-79
2023/06/07 13:51:48;;;;;;;5.47;2.70;;;;;;;;;;5107070;28;20286;-79
2023/06/07 13:54:15;;;;;;;8.00;3.57;;;;;;;;;;5101483;28;20214;-79
2023/06/07 13:56:41;;;;;;;4.97;3.10;;;;;;;;;;5090899;28;20223;-80
2023/06/07 13:59:08;;;;;;;3.53;2.50;;;;;;;;;;5091241;28;20598;-79
2023/06/07 14:01:36;;;;;;;2.93;2.63;;;;;;;;;;5094458;28;20200;-79
2023/06/07 14:04:03;;;;;;;4.53;2.63;;;;;;;;;;5111103;28;20331;-79
2023/06/07 14:06:30;;;;;;;3.47;2.50;;;;;;;;;;5097826;28;20208;-80
2023/06/07 14:08:58;;;;;;;3.33;3.00;;;;;;;;;;5091167;28;20200;-79
2023/06/07 14:11:29;;;;;;;2.63;2.30;;;;;;;;;;5104142;28;20203;-79
2023/06/07 14:13:56;;;;;;;2.37;2.10;;;;;;;;;;5099026;28;20275;-79
2023/06/07 14:16:23;;;;;;;3.37;2.47;;;;;;;;;;5097228;28;20192;-78
2023/06/07 14:18:50;;;;;;;3.13;2.20;;;;;;;;;;5110740;28;20200;-79
2023/06/07 14:21:16;;;;;;;2.83;2.53;;;;;;;;;;5097304;28;20256;-79
2023/06/07 14:23:43;;;;;;;2.60;2.40;;;;;;;;;;5100075;28;20203;-79
2023/06/07 14:26:11;;;;;;;10.10;4.17;;;;;;;;;;5094782;28;20282;-78
2023/06/07 14:28:38;;;;;;;4.30;2.93;;;;;;;;;;5100023;28;20211;-79
2023/06/07 14:31:05;;;;;;;3.03;2.77;;;;;;;;;;5104221;28;20203;-78
2023/06/07 14:33:31;;;;;;;4.53;3.20;;;;;;;;;;5090232;28;20748;-78
2023/06/07 14:35:58;;;;;;;3.00;2.27;;;;;;;;;;5104272;28;20201;-78
2023/06/07 14:38:25;;;;;;;2.67;2.47;;;;;;;;;;5101045;28;20202;-79
2023/06/07 14:40:52;;;;;;;2.67;2.47;;;;;;;;;;5098692;28;20196;-79
2023/06/07 14:43:20;;;;;;;5.17;2.43;;;;;;;;;;5110546;28;20207;-78
2023/06/07 14:45:47;;;;;;;2.67;2.47;;;;;;;;;;5110676;28;20223;-79
2023/06/07 14:48:13;;;;;;;3.07;2.43;;;;;;;;;;5099941;28;20224;-79